createdAt,value
2023-03-05T00:00:39.313Z,17.67
2023-03-05T00:03:06.020Z,16.42
2023-03-05T00:05:34.430Z,17.08
2023-03-05T00:08:01.421Z,17.73
2023-03-05T00:10:28.158Z,17.58
2023-03-05T00:12:54.795Z,17.38
2023-03-05T00:15:21.439Z,18.20
2023-03-05T00:17:48.131Z,16.88
2023-03-05T00:20:14.961Z,16.83
2023-03-05T00:22:41.724Z,17.13
2023-03-05T00:25:08.861Z,18.15
2023-03-05T00:27:36.688Z,16.63
2023-03-05T00:30:03.464Z,18.23
2023-03-05T00:32:30.244Z,18.23
2023-03-05T00:34:59.907Z,17.67
2023-03-05T00:37:26.712Z,16.52
2023-03-05T00:39:53.380Z,16.45
2023-03-05T00:42:21.175Z,16.30
2023-03-05T00:44:49.841Z,16.10
2023-03-05T00:47:19.247Z,16.58
2023-03-05T00:49:45.966Z,16.73
2023-03-05T00:52:12.621Z,15.73
2023-03-05T00:54:42.416Z,15.73
2023-03-05T00:57:09.072Z,17.13
2023-03-05T00:59:35.787Z,16.10
2023-03-05T01:02:02.445Z,16.13
2023-03-05T01:04:29.146Z,16.55
2023-03-05T01:06:55.824Z,18.13
2023-03-05T01:09:25.285Z,17.13
2023-03-05T01:11:52.524Z,16.85
2023-03-05T01:14:19.877Z,17.27
2023-03-05T01:16:46.988Z,15.95
2023-03-05T01:19:14.840Z,15.10
2023-03-05T01:21:41.697Z,15.80
2023-03-05T01:24:08.927Z,16.67
2023-03-05T01:26:35.635Z,16.85
2023-03-05T01:29:02.554Z,17.95
2023-03-05T01:31:29.376Z,15.95
2023-03-05T01:33:56.119Z,16.63
2023-03-05T01:36:25.096Z,18.80
2023-03-05T01:38:52.188Z,21.17
2023-03-05T01:41:19.629Z,21.15
2023-03-05T01:43:46.916Z,20.17
2023-03-05T01:46:13.617Z,18.33
2023-03-05T01:48:41.253Z,19.67
2023-03-05T01:51:07.969Z,20.77
2023-03-05T01:53:34.750Z,19.60
2023-03-05T01:56:01.462Z,20.70
2023-03-05T01:58:28.156Z,20.52
2023-03-05T02:00:54.922Z,19.73
2023-03-05T02:03:22.861Z,19.95
2023-03-05T02:05:49.567Z,17.20
2023-03-05T02:08:18.623Z,17.90
2023-03-05T02:10:53.063Z,17.75
2023-03-05T02:13:23.315Z,16.38
2023-03-05T02:15:50.563Z,16.88
2023-03-05T02:18:18.188Z,18.35
2023-03-05T02:20:57.153Z,16.65
2023-03-05T02:23:33.957Z,17.77
2023-03-05T02:26:00.741Z,19.05
2023-03-05T02:28:51.115Z,18.40
2023-03-05T02:31:20.553Z,17.95
2023-03-05T02:33:47.478Z,19.38
2023-03-05T02:36:14.396Z,20.52
2023-03-05T02:38:41.767Z,19.98
2023-03-05T02:41:09.116Z,19.00
2023-03-05T02:43:36.115Z,18.35
2023-03-05T02:46:02.854Z,18.25
2023-03-05T02:48:29.575Z,19.00
2023-03-05T02:50:56.232Z,17.83
2023-03-05T02:53:23.870Z,18.67
2023-03-05T02:55:50.706Z,18.58
2023-03-05T02:58:17.665Z,18.02
2023-03-05T03:00:46.793Z,20.10
2023-03-05T03:03:13.868Z,17.45
2023-03-05T03:05:40.877Z,20.42
2023-03-05T03:08:07.836Z,20.55
2023-03-05T03:10:34.579Z,19.35
2023-03-05T03:13:01.322Z,19.08
2023-03-05T03:15:28.068Z,19.88
2023-03-05T03:17:55.318Z,19.65
2023-03-05T03:20:22.310Z,18.48
2023-03-05T03:22:52.178Z,18.25
2023-03-05T03:25:20.930Z,18.98
2023-03-05T03:27:47.714Z,18.90
2023-03-05T03:30:14.772Z,19.23
2023-03-05T03:32:41.539Z,17.67
2023-03-05T03:35:09.008Z,20.63
2023-03-05T03:37:35.719Z,19.15
2023-03-05T03:40:02.580Z,19.13
2023-03-05T03:42:29.319Z,20.10
2023-03-05T03:44:56.081Z,20.02
2023-03-05T03:47:22.790Z,20.45
2023-03-05T03:49:49.474Z,19.20
2023-03-05T03:52:16.169Z,19.65
2023-03-05T03:54:42.915Z,18.70
2023-03-05T03:57:09.664Z,20.30
2023-03-05T03:59:36.503Z,19.13
2023-03-05T04:02:03.942Z,18.77
2023-03-05T04:04:30.732Z,18.00
2023-03-05T04:06:57.634Z,19.65
2023-03-05T04:09:24.420Z,18.65
2023-03-05T04:11:51.169Z,18.08
2023-03-05T04:14:18.015Z,18.77
2023-03-05T04:16:44.687Z,19.52
2023-03-05T04:19:11.455Z,20.45
2023-03-05T04:21:38.258Z,18.75
2023-03-05T04:24:05.289Z,18.08
2023-03-05T04:26:31.958Z,18.60
2023-03-05T04:28:58.632Z,17.77
2023-03-05T04:31:25.297Z,17.50
2023-03-05T04:33:52.042Z,18.30
2023-03-05T04:36:20.888Z,17.70
2023-03-05T04:38:47.791Z,14.52
2023-03-05T04:41:14.528Z,16.58
2023-03-05T04:43:41.305Z,15.23
2023-03-05T04:46:08.149Z,13.68
2023-03-05T04:48:34.859Z,14.38
2023-03-05T04:51:01.538Z,14.27
2023-03-05T04:53:28.316Z,12.40
2023-03-05T04:55:55.633Z,13.38
2023-03-05T04:58:22.999Z,13.20
2023-03-05T05:01:01.587Z,12.82
2023-03-05T05:03:36.635Z,12.07
2023-03-05T05:06:04.097Z,12.45
2023-03-05T05:08:30.776Z,12.30
2023-03-05T05:11:01.164Z,13.80
2023-03-05T05:13:31.424Z,13.88
2023-03-05T05:15:59.397Z,14.15
2023-03-05T05:18:26.490Z,12.88
2023-03-05T05:20:53.589Z,11.63
2023-03-05T05:23:20.360Z,13.15
2023-03-05T05:25:47.086Z,12.02
2023-03-05T05:28:18.031Z,11.45
2023-03-05T05:30:46.960Z,12.35
2023-03-05T05:33:13.687Z,11.20
2023-03-05T05:35:40.913Z,12.48
2023-03-05T05:38:07.716Z,11.65
2023-03-05T05:40:34.458Z,12.82
2023-03-05T05:43:02.491Z,12.20
2023-03-05T05:45:29.323Z,11.63
2023-03-05T05:47:56.188Z,12.70
2023-03-05T05:50:22.888Z,13.07
2023-03-05T05:52:51.519Z,12.95
2023-03-05T05:55:20.342Z,11.30
2023-03-05T05:57:47.205Z,12.25
2023-03-05T06:00:14.987Z,11.68
2023-03-05T06:02:42.679Z,11.38
2023-03-05T06:05:12.141Z,12.25
2023-03-05T06:07:39.002Z,12.18
2023-03-05T06:10:06.377Z,11.45
2023-03-05T06:12:35.317Z,11.98
2023-03-05T06:15:02.067Z,10.68
2023-03-05T06:17:30.615Z,11.57
2023-03-05T06:19:58.455Z,10.48
2023-03-05T06:22:25.369Z,11.20
2023-03-05T06:24:52.028Z,11.45
2023-03-05T06:27:18.796Z,11.55
2023-03-05T06:29:45.496Z,11.90
2023-03-05T06:32:12.269Z,10.93
2023-03-05T06:34:39.043Z,12.45
2023-03-05T06:37:05.776Z,12.85
2023-03-05T06:39:32.485Z,11.55
2023-03-05T06:41:59.543Z,11.50
2023-03-05T06:44:28.469Z,12.18
2023-03-05T06:46:55.164Z,12.57
2023-03-05T06:49:23.002Z,11.50
2023-03-05T06:51:54.846Z,10.45
2023-03-05T06:54:21.584Z,11.18
2023-03-05T06:56:48.272Z,12.55
2023-03-05T06:59:16.148Z,11.25
2023-03-05T07:01:43.635Z,11.40
2023-03-05T07:04:11.915Z,12.45
2023-03-05T07:06:38.875Z,11.82
2023-03-05T07:09:06.971Z,11.98
2023-03-05T07:11:34.406Z,11.95
2023-03-05T07:14:01.450Z,12.48
2023-03-05T07:16:30.180Z,10.98
2023-03-05T07:18:57.979Z,11.77
2023-03-05T07:21:27.188Z,11.10
2023-03-05T07:23:54.976Z,11.77
2023-03-05T07:26:22.207Z,11.95
2023-03-05T07:28:48.885Z,11.93
2023-03-05T07:31:21.372Z,11.65
2023-03-05T07:33:49.106Z,11.30
2023-03-05T07:36:16.468Z,12.55
2023-03-05T07:38:43.292Z,11.95
2023-03-05T07:41:19.842Z,13.32
2023-03-05T07:43:47.777Z,12.07
2023-03-05T07:46:16.508Z,11.63
2023-03-05T07:48:43.420Z,11.65
2023-03-05T07:51:16.054Z,12.45
2023-03-05T07:53:43.544Z,11.95
2023-03-05T07:56:10.728Z,11.43
2023-03-05T07:58:37.554Z,12.38
2023-03-05T08:01:04.622Z,12.15
2023-03-05T08:03:31.355Z,11.70
2023-03-05T08:05:58.138Z,13.57
2023-03-05T08:08:24.940Z,12.88
2023-03-05T08:10:52.688Z,13.07
2023-03-05T08:13:20.499Z,13.60
2023-03-05T08:15:47.263Z,14.18
2023-03-05T08:18:15.694Z,12.75
2023-03-05T08:20:49.492Z,12.38
2023-03-05T08:23:16.291Z,12.98
2023-03-05T08:25:43.112Z,15.88
2023-03-05T08:28:10.872Z,13.60
2023-03-05T08:30:37.639Z,11.52
2023-03-05T08:33:04.545Z,12.35
2023-03-05T08:35:31.464Z,12.77
2023-03-05T08:37:58.358Z,12.52
2023-03-05T08:40:25.183Z,12.13
2023-03-05T08:42:52.264Z,11.32
2023-03-05T08:45:22.311Z,11.82
2023-03-05T08:47:50.220Z,11.30
2023-03-05T08:50:18.184Z,12.40
2023-03-05T08:52:44.978Z,10.88
2023-03-05T08:55:13.104Z,11.93
2023-03-05T08:57:39.950Z,11.88
2023-03-05T09:00:07.650Z,11.38
2023-03-05T09:02:35.577Z,12.48
2023-03-05T09:05:02.881Z,11.57
2023-03-05T09:07:31.724Z,12.10
2023-03-05T09:10:10.483Z,10.48
2023-03-05T09:12:38.284Z,12.52
2023-03-05T09:15:09.286Z,11.13
2023-03-05T09:17:36.751Z,11.75
2023-03-05T09:20:04.657Z,11.90
2023-03-05T09:22:31.476Z,11.95
2023-03-05T09:24:58.359Z,11.93
2023-03-05T09:27:25.295Z,11.80
2023-03-05T09:29:53.363Z,11.57
2023-03-05T09:32:20.083Z,11.30
2023-03-05T09:34:46.810Z,11.57
2023-03-05T09:37:14.855Z,11.50
2023-03-05T09:39:41.801Z,11.55
2023-03-05T09:42:41.672Z,12.75
2023-03-05T09:45:27.887Z,11.30
2023-03-05T09:48:10.510Z,13.52
2023-03-05T09:50:43.091Z,12.13
2023-03-05T09:53:18.656Z,12.35
2023-03-05T09:55:55.563Z,11.55
2023-03-05T09:58:56.241Z,12.38
2023-03-05T10:01:49.680Z,11.98
2023-03-05T10:04:25.847Z,12.30
2023-03-05T10:07:00.298Z,12.95
2023-03-05T10:09:45.488Z,12.15
2023-03-05T10:12:15.094Z,12.13
2023-03-05T10:14:41.819Z,12.77
2023-03-05T10:17:30.261Z,12.48
2023-03-05T10:20:01.906Z,11.43
2023-03-05T10:22:30.038Z,11.30
2023-03-05T10:25:34.144Z,11.27
2023-03-05T10:28:18.049Z,12.45
2023-03-05T10:31:21.706Z,10.85
2023-03-05T10:34:00.547Z,11.50
2023-03-05T10:37:12.491Z,11.82
2023-03-05T10:40:10.061Z,11.95
2023-03-05T10:42:45.825Z,11.60
2023-03-05T10:45:17.762Z,11.82
2023-03-05T10:47:54.557Z,11.07
2023-03-05T10:50:27.114Z,11.85
2023-03-05T10:53:14.176Z,11.52
2023-03-05T10:55:41.662Z,12.45
2023-03-05T10:58:16.397Z,11.65
2023-03-05T11:01:24.611Z,12.65
2023-03-05T11:03:56.280Z,11.40
2023-03-05T11:06:45.830Z,12.27
2023-03-05T11:09:15.665Z,13.20
2023-03-05T11:11:42.637Z,12.43
2023-03-05T11:14:30.099Z,12.20
2023-03-05T11:16:57.256Z,13.68
2023-03-05T11:19:39.836Z,12.88
2023-03-05T11:22:20.664Z,15.02
2023-03-05T11:25:15.890Z,13.43
2023-03-05T11:27:55.947Z,12.52
2023-03-05T11:30:27.084Z,14.65
2023-03-05T11:33:19.483Z,13.40
2023-03-05T11:35:47.253Z,12.90
2023-03-05T11:38:18.942Z,12.90
2023-03-05T11:40:45.713Z,12.70
2023-03-05T11:43:18.237Z,13.30
2023-03-05T11:45:45.094Z,14.45
2023-03-05T11:48:25.781Z,12.65
2023-03-05T11:50:55.266Z,12.23
2023-03-05T11:53:37.082Z,12.57
2023-03-05T11:56:36.821Z,10.88
2023-03-05T11:59:12.599Z,12.05
2023-03-05T12:01:48.058Z,10.65
2023-03-05T12:04:15.762Z,11.98
2023-03-05T12:06:48.374Z,11.45
2023-03-05T12:09:15.017Z,11.13
2023-03-05T12:11:42.210Z,10.77
2023-03-05T12:14:25.758Z,10.73
2023-03-05T12:16:58.769Z,10.35
2023-03-05T12:19:48.681Z,11.13
2023-03-05T12:22:23.507Z,10.75
2023-03-05T12:24:50.650Z,11.40
2023-03-05T12:27:33.370Z,11.38
2023-03-05T12:30:03.035Z,11.07
2023-03-05T12:32:31.433Z,11.82
2023-03-05T12:35:27.901Z,11.50
2023-03-05T12:37:58.625Z,11.48
2023-03-05T12:40:33.673Z,11.85
2023-03-05T12:43:00.386Z,11.27
2023-03-05T12:45:40.048Z,12.52
2023-03-05T12:48:12.351Z,12.05
2023-03-05T12:50:39.063Z,11.77
2023-03-05T12:53:08.777Z,11.55
2023-03-05T12:55:47.480Z,11.52
2023-03-05T12:59:09.842Z,11.40
2023-03-05T13:01:44.593Z,11.82
2023-03-05T13:04:19.878Z,11.40
2023-03-05T13:06:46.652Z,11.30
2023-03-05T13:09:25.002Z,11.77
2023-03-05T13:11:52.842Z,11.50
2023-03-05T13:14:33.434Z,11.30
2023-03-05T13:17:00.466Z,11.77
2023-03-05T13:19:27.667Z,11.27
2023-03-05T13:22:01.077Z,12.48
2023-03-05T13:24:29.341Z,11.48
2023-03-05T13:26:56.271Z,12.68
2023-03-05T13:29:26.402Z,12.15
2023-03-05T13:32:02.060Z,12.20
2023-03-05T13:34:47.033Z,11.25
2023-03-05T13:37:22.104Z,10.98
2023-03-05T13:39:52.694Z,12.30
2023-03-05T13:42:28.644Z,11.38
2023-03-05T13:44:57.162Z,12.43
2023-03-05T13:47:25.634Z,11.13
2023-03-05T13:50:07.533Z,12.32
2023-03-05T13:52:36.659Z,11.88
2023-03-05T13:55:05.402Z,11.07
2023-03-05T13:57:35.994Z,12.02
2023-03-05T14:00:04.124Z,11.65
2023-03-05T14:02:33.132Z,11.30
2023-03-05T14:05:00.763Z,11.82
2023-03-05T14:07:36.329Z,10.98
2023-03-05T14:10:04.477Z,10.32
2023-03-05T14:12:42.676Z,10.80
2023-03-05T14:15:32.258Z,11.93
2023-03-05T14:18:12.028Z,12.10
2023-03-05T14:21:07.896Z,10.20
2023-03-05T14:23:47.770Z,11.10
2023-03-05T14:26:28.604Z,10.43
2023-03-05T14:29:11.052Z,9.52
2023-03-05T14:32:07.713Z,10.98
2023-03-05T14:34:40.538Z,10.93
2023-03-05T14:37:42.343Z,10.95
2023-03-05T14:40:12.566Z,11.07
2023-03-05T14:43:02.424Z,11.38
2023-03-05T14:45:40.880Z,10.93
2023-03-05T14:48:08.316Z,11.95
2023-03-05T14:50:54.701Z,10.43
2023-03-05T14:53:25.009Z,10.15
2023-03-05T14:55:56.769Z,11.20
2023-03-05T14:58:26.238Z,9.77
2023-03-05T15:00:53.997Z,10.98
2023-03-05T15:03:21.071Z,10.63
2023-03-05T15:05:49.533Z,10.88
2023-03-05T15:08:20.728Z,11.35
2023-03-05T15:10:47.613Z,10.70
2023-03-05T15:13:16.265Z,11.52
2023-03-05T15:15:43.754Z,11.25
2023-03-05T15:18:12.901Z,12.88
2023-03-05T15:20:40.779Z,12.27
2023-03-05T15:23:07.549Z,13.23
2023-03-05T15:25:34.295Z,11.23
2023-03-05T15:28:01.093Z,12.63
2023-03-05T15:30:31.193Z,12.95
2023-03-05T15:32:59.092Z,12.63
2023-03-05T15:35:26.109Z,12.23
2023-03-05T15:37:53.002Z,11.73
2023-03-05T15:40:21.151Z,12.13
2023-03-05T15:42:48.448Z,12.10
2023-03-05T15:45:15.570Z,11.07
2023-03-05T15:47:42.396Z,11.60
2023-03-05T15:50:09.936Z,13.68
2023-03-05T15:52:36.715Z,13.80
2023-03-05T15:55:05.961Z,12.75
2023-03-05T15:57:35.468Z,11.93
2023-03-05T16:00:02.216Z,11.25
2023-03-05T16:02:29.473Z,12.07
2023-03-05T16:04:56.426Z,11.15
2023-03-05T16:07:24.037Z,13.63
2023-03-05T16:09:51.362Z,11.85
2023-03-05T16:12:31.705Z,12.73
2023-03-05T16:14:58.432Z,11.27
2023-03-05T16:17:26.158Z,11.55
2023-03-05T16:19:54.209Z,11.27
2023-03-05T16:22:21.056Z,10.88
2023-03-05T16:24:47.866Z,12.50
2023-03-05T16:27:15.061Z,11.38
2023-03-05T16:29:41.855Z,11.32
2023-03-05T16:32:08.716Z,11.40
2023-03-05T16:34:35.737Z,11.60
2023-03-05T16:37:04.758Z,11.65
2023-03-05T16:39:31.519Z,12.70
2023-03-05T16:41:58.429Z,12.82
2023-03-05T16:44:25.141Z,12.20
2023-03-05T16:46:54.041Z,12.38
2023-03-05T16:49:21.988Z,13.05
2023-03-05T16:51:49.025Z,13.13
2023-03-05T16:54:15.720Z,14.15
2023-03-05T16:56:42.486Z,14.00
2023-03-05T16:59:09.330Z,15.05
2023-03-05T17:01:36.245Z,13.90
2023-03-05T17:04:03.816Z,14.27
2023-03-05T17:06:31.566Z,14.88
2023-03-05T17:08:58.703Z,15.15
2023-03-05T17:11:28.198Z,15.68
2023-03-05T17:13:54.966Z,13.82
2023-03-05T17:16:21.919Z,16.25
2023-03-05T17:18:48.827Z,15.60
2023-03-05T17:21:15.926Z,14.50
2023-03-05T17:23:42.593Z,14.95
2023-03-05T17:26:12.507Z,15.00
2023-03-05T17:28:39.810Z,15.25
2023-03-05T17:31:06.759Z,15.85
2023-03-05T17:33:34.656Z,14.98
2023-03-05T17:36:01.680Z,15.10
2023-03-05T17:38:31.979Z,13.43
2023-03-05T17:40:59.268Z,14.57
2023-03-05T17:43:28.277Z,16.73
2023-03-05T17:46:00.878Z,15.60
2023-03-05T17:48:28.428Z,15.57
2023-03-05T17:50:56.961Z,15.07
2023-03-05T17:53:23.809Z,13.82
2023-03-05T17:55:50.891Z,14.77
2023-03-05T17:58:18.391Z,17.25
2023-03-05T18:00:45.301Z,15.40
2023-03-05T18:03:12.086Z,15.98
2023-03-05T18:05:41.237Z,15.38
2023-03-05T18:08:08.073Z,16.45
2023-03-05T18:10:34.911Z,16.10
2023-03-05T18:13:03.101Z,15.73
2023-03-05T18:15:31.169Z,17.15
2023-03-05T18:18:00.158Z,15.27
2023-03-05T18:20:33.699Z,17.52
2023-03-05T18:23:01.435Z,14.70
2023-03-05T18:25:31.519Z,14.50
2023-03-05T18:27:59.755Z,13.38
2023-03-05T18:30:26.769Z,13.90
2023-03-05T18:32:53.706Z,13.05
2023-03-05T18:35:20.391Z,14.55
2023-03-05T18:37:48.111Z,14.63
2023-03-05T18:40:19.202Z,13.40
2023-03-05T18:42:47.392Z,13.55
2023-03-05T18:45:15.545Z,14.25
2023-03-05T18:47:42.613Z,13.07
2023-03-05T18:50:15.030Z,13.02
2023-03-05T18:52:42.863Z,13.88
2023-03-05T18:55:18.778Z,13.88
2023-03-05T18:57:49.398Z,15.48
2023-03-05T19:00:24.336Z,15.80
2023-03-05T19:02:51.313Z,15.93
2023-03-05T19:05:18.326Z,15.50
2023-03-05T19:07:45.881Z,15.73
2023-03-05T19:10:13.831Z,16.63
2023-03-05T19:12:53.403Z,17.55
2023-03-05T19:15:26.394Z,17.25
2023-03-05T19:17:54.968Z,16.90
2023-03-05T19:20:21.697Z,15.77
2023-03-05T19:22:50.916Z,16.38
2023-03-05T19:25:18.330Z,14.40
2023-03-05T19:27:45.020Z,15.88
2023-03-05T19:30:12.824Z,18.05
2023-03-05T19:32:39.603Z,19.48
2023-03-05T19:35:06.749Z,21.13
2023-03-05T19:37:33.529Z,18.63
2023-03-05T19:40:00.249Z,17.55
2023-03-05T19:42:27.363Z,18.80
2023-03-05T19:44:54.239Z,17.85
2023-03-05T19:47:20.987Z,16.75
2023-03-05T19:49:47.706Z,16.33
2023-03-05T19:52:14.388Z,15.35
2023-03-05T19:54:41.187Z,17.48
2023-03-05T19:57:07.987Z,17.98
2023-03-05T19:59:34.646Z,20.85
2023-03-05T20:02:01.532Z,19.90
2023-03-05T20:04:28.400Z,17.80
2023-03-05T20:06:55.507Z,18.40
2023-03-05T20:09:22.229Z,18.92
2023-03-05T20:11:49.056Z,19.92
2023-03-05T20:14:15.829Z,20.65
2023-03-05T20:16:43.453Z,19.98
2023-03-05T20:19:16.265Z,20.08
2023-03-05T20:21:43.379Z,19.40
2023-03-05T20:24:15.479Z,18.98
2023-03-05T20:26:43.027Z,18.38
2023-03-05T20:29:10.027Z,22.35
2023-03-05T20:31:37.370Z,20.17
2023-03-05T20:34:06.520Z,17.98
2023-03-05T20:36:34.805Z,18.15
2023-03-05T20:39:03.211Z,19.23
2023-03-05T20:41:30.410Z,16.75
2023-03-05T20:43:57.131Z,17.13
2023-03-05T20:46:31.844Z,16.50
2023-03-05T20:49:00.921Z,16.77
2023-03-05T20:51:34.037Z,17.40
2023-03-05T20:56:33.024Z,14.98
2023-03-05T20:59:02.920Z,16.13
2023-03-05T21:01:30.239Z,17.15
2023-03-05T21:03:59.953Z,19.13
2023-03-05T21:06:34.212Z,15.65
2023-03-05T21:09:01.356Z,15.15
2023-03-05T21:11:28.375Z,15.13
2023-03-05T21:13:55.235Z,15.55
2023-03-05T21:16:24.268Z,14.75
2023-03-05T21:18:52.130Z,14.18
2023-03-05T21:21:20.040Z,13.35
2023-03-05T21:23:47.288Z,13.63
2023-03-05T21:26:14.464Z,13.95
2023-03-05T21:31:48.164Z,15.23
2023-03-05T21:34:28.294Z,16.20
2023-03-05T21:36:55.252Z,13.15
2023-03-05T21:39:21.923Z,14.13
2023-03-05T21:41:48.682Z,12.82
2023-03-05T21:44:17.774Z,14.00
2023-03-05T21:46:44.586Z,14.50
2023-03-05T21:49:11.407Z,13.55
2023-03-05T21:51:49.586Z,15.00
2023-03-05T21:54:16.262Z,14.40
2023-03-05T21:56:43.756Z,13.55
2023-03-05T21:59:10.466Z,13.63
2023-03-05T22:01:37.142Z,15.82
2023-03-05T22:04:04.127Z,13.60
2023-03-05T22:06:31.048Z,15.50
2023-03-05T22:08:57.834Z,15.20
2023-03-05T22:11:24.606Z,16.13
2023-03-05T22:13:51.373Z,15.52
2023-03-05T22:16:25.880Z,16.58
2023-03-05T22:18:53.279Z,15.15
2023-03-05T22:21:27.076Z,15.35
2023-03-05T22:23:57.054Z,14.27
2023-03-05T22:26:34.501Z,14.80
2023-03-05T22:29:01.779Z,13.60
2023-03-05T22:31:28.602Z,12.60
2023-03-05T22:33:55.320Z,12.77
2023-03-05T22:36:22.248Z,13.35
2023-03-05T22:38:50.059Z,13.07
2023-03-05T22:41:19.956Z,12.25
2023-03-05T22:43:47.739Z,14.23
2023-03-05T22:46:23.363Z,14.00
2023-03-05T22:48:50.169Z,13.20
2023-03-05T22:51:17.392Z,12.90
2023-03-05T22:53:45.175Z,12.88
2023-03-05T22:56:14.297Z,12.68
2023-03-05T22:58:41.192Z,14.52
2023-03-05T23:01:17.919Z,15.68
2023-03-05T23:03:44.701Z,14.65
2023-03-05T23:06:11.667Z,14.70
2023-03-05T23:08:38.438Z,15.10
2023-03-05T23:11:09.909Z,14.73
2023-03-05T23:13:36.699Z,14.82
2023-03-05T23:16:03.763Z,15.25
2023-03-05T23:18:30.741Z,13.43
2023-03-05T23:20:57.464Z,14.90
2023-03-05T23:23:24.378Z,14.80
2023-03-05T23:25:51.913Z,15.27
2023-03-05T23:28:19.977Z,14.75
2023-03-05T23:30:46.709Z,15.40
2023-03-05T23:33:18.034Z,14.48
2023-03-05T23:35:58.863Z,14.60
2023-03-05T23:38:26.853Z,15.18
2023-03-05T23:40:55.392Z,14.57
2023-03-05T23:43:24.758Z,13.98
2023-03-05T23:45:55.076Z,14.15
2023-03-05T23:48:23.344Z,13.27
2023-03-05T23:50:50.398Z,13.93
2023-03-05T23:53:22.631Z,14.02
2023-03-05T23:55:50.311Z,14.20
2023-03-05T23:58:19.127Z,13.65
